TimeEDT,TemperatureF,Dew PointF,Humidity,Sea Level PressureIn,VisibilityMPH,Wind Direction,Wind SpeedMPH,Gust SpeedMPH,PrecipitationIn,Events,Conditions,WindDirDegrees,DateUTC
12:53 AM,46.9,41.0,80,29.73,10.0,SSE,4.6,-,0.00,Rain,Light Rain,150,2013-10-20 04:53:00
1:53 AM,46.0,41.0,83,29.73,10.0,SE,5.8,-,0.00,Rain,Light Rain,130,2013-10-20 05:53:00
2:53 AM,45.0,42.1,90,29.70,10.0,East,4.6,-,0.03,,Overcast,100,2013-10-20 06:53:00
3:53 AM,44.1,42.1,93,29.68,10.0,East,5.8,-,0.01,,Overcast,90,2013-10-20 07:53:00
4:53 AM,44.1,42.1,93,29.66,10.0,East,8.1,-,0.00,,Overcast,100,2013-10-20 08:53:00
5:53 AM,44.1,42.1,93,29.63,10.0,East,10.4,-,0.01,Rain,Light Rain,100,2013-10-20 09:53:00
6:40 AM,44.6,42.8,93,29.62,10.0,ESE,9.2,-,0.01,Rain,Light Rain,120,2013-10-20 10:40:00
6:53 AM,44.1,42.1,93,29.63,7.0,SE,11.5,-,0.02,Rain,Light Rain,140,2013-10-20 10:53:00
7:01 AM,44.6,42.8,93,29.61,6.0,SE,11.5,-,0.01,Rain,Light Rain,130,2013-10-20 11:01:00
7:08 AM,44.6,42.8,93,29.61,7.0,SE,11.5,-,0.01,Rain,Light Rain,130,2013-10-20 11:08:00
7:50 AM,44.6,42.8,93,29.60,4.0,SE,11.5,-,0.05,Rain,Light Rain,130,2013-10-20 11:50:00
7:53 AM,45.0,43.0,93,29.61,4.0,SE,12.7,-,0.05,Rain,Light Rain,130,2013-10-20 11:53:00
8:33 AM,44.6,44.6,100,29.59,4.0,SSE,13.8,-,0.00,Rain,Light Rain,150,2013-10-20 12:33:00
8:50 AM,44.6,44.6,100,29.59,2.0,SE,9.2,-,0.00,Rain,Light Rain,130,2013-10-20 12:50:00
8:53 AM,45.0,44.1,97,29.60,2.5,SSE,11.5,-,0.00,Rain,Light Rain,160,2013-10-20 12:53:00
9:02 AM,46.4,44.6,93,29.59,4.0,SSE,11.5,-,0.00,,Overcast,150,2013-10-20 13:02:00
9:30 AM,46.4,44.6,93,29.58,7.0,South,12.7,-,0.00,,Overcast,170,2013-10-20 13:30:00
9:53 AM,46.0,45.0,96,29.59,6.0,South,11.5,18.4,0.01,Rain,Light Rain,170,2013-10-20 13:53:00
10:24 AM,46.4,44.6,93,29.58,2.5,SSW,6.9,-,0.01,Rain,Light Rain,200,2013-10-20 14:24:00
10:34 AM,46.4,44.6,93,29.58,3.0,South,9.2,-,0.02,Rain,Light Rain,190,2013-10-20 14:34:00
10:53 AM,46.9,46.0,97,29.58,3.0,South,9.2,-,0.02,Rain,Light Rain,170,2013-10-20 14:53:00
11:01 AM,46.4,46.4,100,29.57,2.0,South,9.2,-,0.01,Rain,Light Rain,190,2013-10-20 15:01:00
11:21 AM,44.6,42.8,93,29.58,3.0,SW,12.7,21.9,0.07,Rain,Rain,230,2013-10-20 15:21:00
11:26 AM,44.6,42.8,93,29.59,6.0,SW,13.8,-,0.08,Rain,Rain,230,2013-10-20 15:26:00
11:53 AM,45.0,43.0,93,29.59,10.0,SSW,6.9,-,0.10,Rain,Light Rain,210,2013-10-20 15:53:00
12:39 PM,46.4,44.6,93,29.57,10.0,SW,6.9,-,0.00,,Overcast,220,2013-10-20 16:39:00
12:53 PM,46.9,43.0,86,29.58,10.0,SW,10.4,-,0.00,,Overcast,220,2013-10-20 16:53:00
1:01 PM,46.4,42.8,87,29.58,10.0,SW,9.2,-,N/A,,Overcast,230,2013-10-20 17:01:00
1:14 PM,48.2,42.8,82,29.58,10.0,SW,6.9,-,N/A,,Overcast,220,2013-10-20 17:14:00
1:53 PM,46.9,41.0,80,29.59,10.0,WSW,12.7,-,0.00,,Overcast,240,2013-10-20 17:53:00
2:53 PM,46.9,37.9,71,29.61,10.0,WSW,8.1,-,N/A,,Overcast,240,2013-10-20 18:53:00
3:53 PM,46.9,37.0,68,29.62,10.0,West,15.0,18.4,N/A,,Overcast,260,2013-10-20 19:53:00
4:53 PM,46.9,33.1,59,29.64,10.0,WSW,9.2,17.3,N/A,,Overcast,250,2013-10-20 20:53:00
5:53 PM,45.0,32.0,60,29.65,10.0,West,11.5,-,N/A,,Mostly Cloudy,260,2013-10-20 21:53:00
6:53 PM,44.1,34.0,68,29.68,10.0,West,9.2,16.1,N/A,,Mostly Cloudy,260,2013-10-20 22:53:00
7:53 PM,43.0,34.0,71,29.69,10.0,West,13.8,18.4,N/A,,Overcast,260,2013-10-20 23:53:00
8:53 PM,42.1,34.0,73,29.70,10.0,West,13.8,-,N/A,,Scattered Clouds,260,2013-10-21 00:53:00
9:53 PM,39.9,33.1,77,29.72,10.0,WSW,6.9,-,N/A,,Clear,250,2013-10-21 01:53:00
10:53 PM,39.9,33.1,77,29.73,10.0,West,8.1,-,N/A,,Mostly Cloudy,260,2013-10-21 02:53:00
11:53 PM,39.9,33.1,77,29.74,10.0,West,9.2,-,N/A,,Mostly Cloudy,270,2013-10-21 03:53:00